METAR Data
IDs: Format: Raw Decoded Include TAF

Data at: 1737 UTC 03 Jun 2020

KSET 031654Z AUTO VRB03KT 10SM FEW065 SCT080 31/21 A2990 RMK AO2 SLP118 T03060211
KSET 031554Z AUTO 23007KT 10SM FEW060 30/20 A2990 RMK AO2 SLP119 T03000200
KSET 031454Z AUTO 24008KT 10SM FEW060 28/20 A2991 RMK AO2 SLP123 T02780200 58004
KSET 031354Z AUTO 26008KT 10SM BKN060 26/19 A2993 RMK AO2 SLP129 T02610189
KSET 031254Z AUTO 23006KT 10SM CLR 24/18 A2994 RMK AO2 SLP132 T02390183
KSET 031154Z AUTO 20004KT 10SM CLR 22/18 A2992 RMK AO2 SLP128 T02220183 10233 20194 53000
KSET 031054Z AUTO 00000KT 10SM CLR 19/17 A2992 RMK AO2 SLP127 T01940167
KSET 030954Z AUTO 23005KT 10SM CLR 21/17 A2992 RMK AO2 SLP127 T02110172
KSET 030854Z AUTO 23008KT 8SM CLR 23/17 A2992 RMK AO2 SLP126 T02280172 56012
KSET 030754Z AUTO 25003KT 10SM CLR 23/17 A2993 RMK AO2 SLP130 T02280172
KSET 030654Z AUTO 23006KT 10SM CLR 23/18 A2995 RMK AO2 SLP134 T02330178
KSET 030554Z AUTO 00000KT 10SM CLR 22/18 A2996 RMK AO2 SLP140 T02170178 10306 20206 403280183 51010
KSET 030454Z AUTO 22004KT 10SM CLR 23/17 A2995 RMK AO2 SLP138 T02330167
KSET 030354Z AUTO 23006KT 10SM CLR 24/17 A2995 RMK AO2 SLP136 T02440167
KSET 030254Z AUTO 22006KT 10SM CLR 25/17 A2993 RMK AO2 SLP130 T02500167 55001
KSET 030154Z AUTO 21005KT 10SM CLR 27/17 A2993 RMK AO2 SLP129 T02670167
KSET 030054Z AUTO 21006KT 10SM CLR 29/17 A2993 RMK AO2 SLP130 T02940167
KSET 022354Z AUTO 21012G17KT 10SM CLR 31/16 A2993 RMK AO2 SLP130 T03060156 10328 20306 58011
KSET 022254Z AUTO 23014G21KT 10SM CLR 32/16 A2994 RMK AO2 SLP134 T03170161
KSET 022154Z AUTO 22011G20KT 10SM CLR 32/15 A2996 RMK AO2 SLP139 T03220150
KSET 022054Z AUTO 24014KT 10SM CLR 33/16 A2996 RMK AO2 SLP141 T03280156 57017
KSET 021954Z AUTO 22013G20KT 10SM CLR 33/17 A2998 RMK AO2 SLP147 T03280167
KSET 021854Z AUTO 23008G19KT 10SM CLR 32/17 A2999 RMK AO2 SLP152 T03170167
KSET 021754Z AUTO 26009KT 10SM CLR 31/16 A3001 RMK AO2 SLP158 T03060161 10306 20222 58015
KSET 021654Z AUTO 24011G18KT 10SM CLR 29/17 A3003 RMK AO2 SLP162 T02940167
KSET 021554Z AUTO 24010KT 10SM CLR 28/17 A3004 RMK AO2 SLP168 T02830167
KSET 021454Z AUTO 25009KT 10SM CLR 27/16 A3006 RMK AO2 SLP173 T02670161 58003
KSET 021354Z AUTO 24006KT 10SM CLR 25/16 A3007 RMK AO2 SLP177 T02500161
KSET 021254Z AUTO 24007KT 10SM CLR 23/16 A3007 RMK AO2 SLP177 T02330156
KSET 021154Z AUTO 23005KT 10SM CLR 22/16 A3007 RMK AO2 SLP176 T02220156 10228 20183 53008
KSET 021054Z AUTO 22004KT 10SM CLR 19/14 A3005 RMK AO2 SLP171 T01940144
KSET 020954Z AUTO 20005KT 10SM CLR 19/14 A3004 RMK AO2 SLP167 T01940144
KSET 020854Z AUTO 00000KT 10SM CLR 21/14 A3004 RMK AO2 SLP167 T02060144 55005
KSET 020754Z AUTO 21005KT 10SM CLR 21/14 A3004 RMK AO2 SLP166 T02060144
KSET 020654Z AUTO 21006KT 10SM CLR 22/14 A3004 RMK AO2 SLP168 T02170144
KSET 020554Z AUTO 20006KT 10SM CLR 23/14 A3005 RMK AO2 SLP172 T02280144 10278 20228 402890161 58004